createdAt,value
2019-05-25T00:03:36.558Z,5.20
2019-05-25T00:06:20.110Z,4.47
2019-05-25T00:09:09.883Z,4.20
2019-05-25T00:12:00.042Z,4.70
2019-05-25T00:15:08.919Z,4.00
2019-05-25T00:17:58.908Z,6.00
2019-05-25T00:20:48.659Z,4.83
2019-05-25T00:23:38.385Z,4.27
2019-05-25T00:26:20.769Z,6.40
2019-05-25T00:29:10.566Z,5.70
2019-05-25T00:32:15.974Z,4.73
2019-05-25T00:34:58.696Z,4.57
2019-05-25T00:37:48.443Z,5.73
2019-05-25T00:40:30.856Z,5.37
2019-05-25T00:43:20.594Z,5.13
2019-05-25T00:49:06.075Z,7.37
2019-05-25T00:51:36.758Z,4.87
2019-05-25T00:54:28.191Z,5.20
2019-05-25T00:57:10.943Z,5.67
2019-05-25T01:00:00.733Z,7.50
2019-05-25T01:02:50.545Z,6.50
2019-05-25T01:05:40.337Z,5.80
2019-05-25T01:08:22.983Z,5.07
2019-05-25T01:11:12.704Z,6.27
2019-05-25T01:17:05.891Z,7.00
2019-05-25T01:19:48.751Z,5.53
2019-05-25T01:22:38.486Z,7.77
2019-05-25T01:25:28.179Z,7.53
2019-05-25T01:28:10.656Z,5.90
2019-05-25T01:31:00.477Z,5.60
2019-05-25T01:33:50.246Z,8.30
2019-05-25T01:36:40.173Z,6.37
2019-05-25T01:39:29.998Z,6.40
2019-05-25T01:45:28.554Z,6.33
2019-05-25T01:48:11.557Z,8.03
2019-05-25T01:51:01.428Z,6.20
2019-05-25T01:53:51.206Z,7.37
2019-05-25T01:56:40.977Z,5.43
2019-05-25T02:02:23.917Z,7.83
2019-05-25T02:05:14.075Z,5.87
2019-05-25T02:08:03.906Z,5.40
2019-05-25T02:11:07.008Z,7.50
2019-05-25T02:13:49.219Z,5.90
2019-05-25T02:16:38.915Z,6.27
2019-05-25T02:19:21.283Z,6.43
2019-05-25T02:22:10.998Z,7.00
2019-05-25T02:24:52.921Z,6.57
2019-05-25T02:27:42.720Z,5.63
2019-05-25T02:30:26.337Z,5.43
2019-05-25T02:33:16.054Z,5.40
2019-05-25T02:35:58.758Z,5.50
2019-05-25T02:38:48.473Z,4.80
2019-05-25T02:41:30.549Z,5.80
2019-05-25T02:47:21.394Z,6.27
2019-05-25T02:50:11.107Z,5.30
2019-05-25T02:52:54.456Z,8.13
2019-05-25T02:55:44.196Z,6.63
2019-05-25T03:04:21.468Z,6.33
2019-05-25T03:07:11.280Z,5.60
2019-05-25T03:09:53.695Z,5.50
2019-05-25T03:18:52.578Z,5.40
2019-05-25T03:21:35.238Z,5.80
2019-05-25T03:24:25.272Z,7.63
2019-05-25T03:30:37.315Z,5.63
2019-05-25T03:33:27.092Z,5.97
2019-05-25T03:36:16.873Z,6.00
2019-05-25T03:39:08.188Z,5.50
2019-05-25T03:41:57.968Z,6.80
2019-05-25T03:44:47.698Z,7.80
2019-05-25T03:50:40.693Z,5.93
2019-05-25T03:53:22.975Z,6.10
2019-05-25T03:56:12.716Z,7.07
2019-05-25T03:58:55.378Z,6.03
2019-05-25T04:01:45.148Z,6.90
2019-05-25T04:04:34.931Z,6.50
2019-05-25T04:07:17.192Z,7.33
2019-05-25T04:13:21.075Z,5.70
2019-05-25T04:16:10.874Z,6.27
2019-05-25T04:19:00.648Z,6.53
2019-05-25T04:22:09.539Z,7.50
2019-05-25T04:24:59.280Z,5.77
2019-05-25T04:27:48.980Z,6.03
2019-05-25T04:30:31.473Z,6.33
2019-05-25T04:33:21.190Z,6.93
2019-05-25T04:36:10.953Z,7.37
2019-05-25T04:39:00.740Z,7.27
2019-05-25T04:41:50.515Z,6.53
2019-05-25T04:44:40.245Z,8.00
2019-05-25T04:47:30.105Z,6.00
2019-05-25T04:50:19.907Z,5.90
2019-05-25T04:53:09.692Z,5.63
2019-05-25T05:01:55.989Z,5.33
2019-05-25T05:04:45.779Z,7.47
2019-05-25T05:07:35.486Z,5.50
2019-05-25T05:10:17.827Z,6.67
2019-05-25T05:12:48.490Z,5.70
2019-05-25T05:18:27.798Z,7.00
2019-05-25T05:20:58.500Z,6.13
2019-05-25T05:23:48.369Z,12.17
2019-05-25T05:26:30.822Z,6.97
2019-05-25T05:29:39.662Z,5.77
2019-05-25T05:32:29.462Z,7.10
2019-05-25T05:35:19.270Z,7.03
2019-05-25T05:38:09.047Z,7.60
2019-05-25T05:41:18.183Z,6.13
2019-05-25T05:44:08.044Z,6.60
2019-05-25T05:50:12.430Z,7.60
2019-05-25T05:52:43.064Z,9.17
2019-05-25T05:55:33.176Z,11.00
2019-05-25T05:58:15.296Z,15.07
2019-05-25T06:00:58.498Z,14.23
2019-05-25T06:03:48.331Z,11.33
2019-05-25T06:06:38.239Z,10.47
2019-05-25T06:09:28.063Z,9.20
2019-05-25T06:12:36.910Z,8.40
2019-05-25T06:15:26.696Z,11.43
2019-05-25T06:18:16.760Z,11.47
2019-05-25T06:21:06.706Z,10.47
2019-05-25T06:23:56.482Z,9.00
2019-05-25T06:26:46.235Z,8.90
2019-05-25T06:29:35.996Z,9.30
2019-05-25T06:32:27.257Z,8.50
2019-05-25T06:38:00.214Z,7.23
2019-05-25T06:53:18.988Z,7.97
2019-05-25T06:56:03.290Z,7.93
2019-05-25T06:58:45.740Z,7.83
2019-05-25T07:01:35.548Z,7.40
2019-05-25T07:04:25.906Z,7.92
2019-05-25T07:07:16.282Z,7.10
2019-05-25T07:10:06.572Z,7.85
2019-05-25T07:12:56.328Z,7.00
2019-05-25T07:15:46.714Z,7.37
2019-05-25T07:18:29.695Z,6.65
2019-05-25T07:21:00.420Z,6.75
2019-05-25T07:23:50.153Z,7.15
2019-05-25T07:26:33.081Z,6.80
2019-05-25T07:29:41.960Z,10.08
2019-05-25T07:32:31.751Z,7.72
2019-05-25T07:35:21.563Z,7.58
2019-05-25T07:38:11.329Z,7.28
2019-05-25T07:41:02.075Z,10.48
2019-05-25T07:44:04.849Z,9.13
2019-05-25T07:46:47.696Z,7.67
2019-05-25T07:49:37.428Z,8.00
2019-05-25T07:52:20.202Z,9.03
2019-05-25T07:55:10.479Z,8.20
2019-05-25T07:57:53.599Z,7.87
2019-05-25T08:00:43.921Z,7.85
2019-05-25T08:03:26.580Z,14.55
2019-05-25T08:06:16.873Z,9.95
2019-05-25T08:09:00.098Z,8.75
2019-05-25T08:11:50.414Z,8.55
2019-05-25T08:14:32.931Z,8.73
2019-05-25T08:17:23.590Z,8.80
2019-05-25T08:20:06.707Z,9.55
2019-05-25T08:22:57.060Z,8.48
2019-05-25T08:25:47.613Z,9.28
2019-05-25T08:28:37.971Z,9.18
2019-05-25T08:31:28.364Z,10.53
2019-05-25T08:34:18.777Z,8.58
2019-05-25T08:37:28.444Z,10.43
2019-05-25T08:40:12.053Z,8.75
2019-05-25T08:42:43.293Z,9.05
2019-05-25T08:45:33.702Z,9.78
2019-05-25T08:48:17.906Z,8.83
2019-05-25T08:51:01.158Z,6.97
2019-05-25T08:53:51.661Z,8.13
2019-05-25T08:56:41.965Z,7.55
2019-05-25T08:59:25.698Z,7.37
2019-05-25T09:02:16.164Z,7.60
2019-05-25T09:05:06.762Z,11.90
2019-05-25T09:07:57.204Z,8.65
2019-05-25T09:10:47.640Z,7.85
2019-05-25T09:13:38.010Z,7.25
2019-05-25T09:16:28.398Z,7.20
2019-05-25T09:19:18.729Z,7.00
2019-05-25T09:22:03.431Z,6.35
2019-05-25T09:24:53.650Z,6.72
2019-05-25T09:27:36.288Z,6.85
2019-05-25T09:30:26.662Z,6.72
2019-05-25T09:33:36.121Z,8.90
2019-05-25T09:36:26.476Z,6.92
2019-05-25T09:41:54.699Z,6.47
2019-05-25T09:44:45.000Z,7.28
2019-05-25T09:47:28.582Z,7.95
2019-05-25T09:50:18.984Z,7.03
2019-05-25T09:53:01.610Z,6.65
2019-05-25T09:55:52.075Z,8.90
2019-05-25T09:58:34.964Z,8.95
2019-05-25T10:01:25.574Z,7.58
2019-05-25T10:04:15.888Z,7.33
2019-05-25T10:07:06.309Z,6.67
2019-05-25T10:09:56.686Z,6.37
2019-05-25T10:12:47.090Z,7.25
2019-05-25T10:15:50.618Z,6.90
2019-05-25T10:18:33.219Z,7.33
2019-05-25T10:21:23.540Z,5.95
2019-05-25T10:24:06.212Z,6.70
2019-05-25T10:26:56.546Z,9.55
2019-05-25T10:29:46.847Z,8.40
2019-05-25T10:32:31.733Z,7.85
2019-05-25T10:35:41.213Z,9.58
2019-05-25T10:38:31.668Z,10.03
2019-05-25T10:41:22.091Z,8.90
2019-05-25T10:44:11.915Z,9.55
2019-05-25T10:47:01.706Z,9.98
2019-05-25T10:49:51.494Z,12.18
2019-05-25T10:52:41.984Z,12.30
2019-05-25T10:58:29.977Z,10.80
2019-05-25T11:01:19.736Z,10.75
2019-05-25T11:04:02.336Z,11.85
2019-05-25T11:06:52.079Z,12.25
2019-05-25T11:09:36.225Z,11.70
2019-05-25T11:12:26.216Z,11.10
2019-05-25T11:15:14.454Z,11.88
2019-05-25T11:18:04.927Z,12.00
2019-05-25T11:20:47.279Z,10.93
2019-05-25T11:23:37.184Z,11.75
2019-05-25T11:26:19.333Z,12.93
2019-05-25T11:29:09.122Z,13.03
2019-05-25T11:31:56.650Z,11.38
2019-05-25T11:34:43.139Z,11.12
2019-05-25T11:37:25.589Z,11.10
2019-05-25T11:40:16.361Z,11.90
2019-05-25T11:42:47.130Z,11.73
2019-05-25T11:45:36.846Z,12.23
2019-05-25T11:51:22.278Z,12.23
2019-05-25T11:54:12.569Z,11.33
2019-05-25T11:56:54.867Z,10.88
2019-05-25T11:59:38.100Z,11.18
2019-05-25T12:02:21.874Z,10.50
2019-05-25T12:05:32.831Z,12.35
2019-05-25T12:08:23.223Z,10.45
2019-05-25T12:11:32.727Z,10.90
2019-05-25T12:14:23.117Z,10.48
2019-05-25T12:17:13.484Z,10.75
2019-05-25T12:20:04.006Z,11.08
2019-05-25T12:23:13.571Z,10.53
2019-05-25T12:25:56.555Z,10.58
2019-05-25T12:28:46.908Z,10.68
2019-05-25T12:31:37.444Z,9.53
2019-05-25T12:34:20.166Z,11.75
2019-05-25T12:37:22.622Z,11.10
2019-05-25T12:40:05.626Z,10.05
2019-05-25T12:42:55.946Z,10.32
2019-05-25T12:45:42.003Z,11.18
2019-05-25T12:48:30.721Z,10.50
2019-05-25T12:51:13.556Z,10.82
2019-05-25T12:54:03.846Z,10.15
2019-05-25T12:56:46.832Z,10.72
2019-05-25T12:59:37.165Z,9.98
2019-05-25T13:02:23.716Z,10.78
2019-05-25T13:05:34.907Z,5.37
2019-05-25T13:08:19.014Z,2.95
2019-05-25T13:11:09.673Z,5.37
2019-05-25T13:13:53.224Z,3.17
2019-05-25T13:16:42.978Z,3.20
2019-05-25T13:19:25.280Z,4.42
2019-05-25T13:22:14.991Z,3.30
2019-05-25T13:24:57.315Z,3.00
2019-05-25T13:27:47.109Z,2.58
2019-05-25T13:30:29.468Z,3.15
2019-05-25T13:33:19.780Z,2.95
2019-05-25T13:36:04.079Z,3.08
2019-05-25T13:38:53.803Z,2.20
2019-05-25T13:41:44.106Z,2.47
2019-05-25T13:44:26.588Z,2.27
2019-05-25T13:47:16.987Z,2.35
2019-05-25T13:50:19.466Z,2.70
2019-05-25T13:53:02.124Z,2.77
2019-05-25T13:56:10.983Z,3.33
2019-05-25T14:01:42.040Z,3.33
2019-05-25T14:04:32.345Z,3.58
2019-05-25T14:07:15.140Z,3.72
2019-05-25T14:10:05.823Z,5.22
2019-05-25T14:13:15.183Z,3.20
2019-05-25T14:16:06.789Z,4.90
2019-05-25T14:18:48.745Z,2.95
2019-05-25T14:21:39.199Z,3.10
2019-05-25T14:24:29.481Z,4.40
2019-05-25T14:27:19.790Z,4.22
2019-05-25T14:30:02.054Z,4.87
2019-05-25T14:32:51.759Z,3.72
2019-05-25T14:35:41.589Z,5.47
2019-05-25T14:38:25.379Z,5.87
2019-05-25T14:41:15.143Z,7.27
2019-05-25T14:44:04.991Z,4.70
2019-05-25T14:46:48.463Z,7.47
2019-05-25T14:49:38.261Z,6.47
2019-05-25T14:52:28.079Z,8.37
2019-05-25T14:55:18.083Z,8.80
2019-05-25T14:58:07.801Z,5.70
2019-05-25T15:00:57.537Z,4.97
2019-05-25T15:03:47.305Z,5.33
2019-05-25T15:06:29.305Z,6.70
2019-05-25T15:09:19.043Z,3.90
2019-05-25T15:12:01.600Z,3.93
2019-05-25T15:14:51.420Z,4.13
2019-05-25T15:17:43.166Z,6.83
2019-05-25T15:20:26.481Z,4.30
2019-05-25T15:23:16.282Z,4.00
2019-05-25T15:26:06.111Z,5.23
2019-05-25T15:28:56.871Z,5.93
2019-05-25T15:31:46.743Z,6.77
2019-05-25T15:34:36.498Z,8.40
2019-05-25T15:37:26.282Z,7.93
2019-05-25T15:40:16.133Z,6.63
2019-05-25T15:43:06.108Z,5.50
2019-05-25T15:46:15.005Z,5.40
2019-05-25T15:48:57.769Z,6.33
2019-05-25T15:51:47.544Z,5.77
2019-05-25T15:54:29.810Z,6.57
2019-05-25T15:57:19.985Z,4.20
2019-05-25T16:00:02.924Z,4.40
2019-05-25T16:05:54.928Z,6.65
2019-05-25T16:11:32.742Z,8.05
2019-05-25T16:14:23.135Z,6.03
2019-05-25T16:17:12.956Z,6.22
2019-05-25T16:20:03.362Z,6.58
2019-05-25T16:22:53.756Z,8.70
2019-05-25T16:25:44.088Z,6.22
2019-05-25T16:28:33.924Z,6.57
2019-05-25T16:31:23.638Z,5.50
2019-05-25T16:34:13.933Z,4.00
2019-05-25T16:37:04.416Z,5.83
2019-05-25T16:39:47.663Z,4.90
2019-05-25T16:42:37.394Z,4.22
2019-05-25T16:45:21.162Z,4.62
2019-05-25T16:48:11.478Z,4.05
2019-05-25T16:50:54.913Z,3.87
2019-05-25T16:53:45.187Z,6.78
2019-05-25T16:56:35.486Z,5.15
2019-05-25T16:59:18.512Z,5.75
2019-05-25T17:02:08.806Z,5.53
2019-05-25T17:04:53.368Z,4.90
2019-05-25T17:07:36.136Z,5.75
2019-05-25T17:10:25.889Z,6.10
2019-05-25T17:13:09.456Z,6.28
2019-05-25T17:15:59.250Z,5.85
2019-05-25T17:18:49.790Z,5.97
2019-05-25T17:21:40.158Z,5.35
2019-05-25T17:24:29.986Z,4.90
2019-05-25T17:27:20.402Z,4.53
2019-05-25T17:30:10.677Z,5.80
2019-05-25T17:33:00.428Z,6.47
2019-05-25T17:35:50.149Z,5.67
2019-05-25T17:38:39.874Z,6.10
2019-05-25T17:41:22.244Z,7.60
2019-05-25T17:44:11.969Z,6.10
2019-05-25T17:46:54.491Z,5.77
2019-05-25T17:49:44.220Z,6.03
2019-05-25T17:52:26.517Z,7.13
2019-05-25T17:55:16.219Z,6.07
2019-05-25T17:57:46.909Z,6.40
2019-05-25T18:00:55.672Z,6.30
2019-05-25T18:03:38.081Z,7.20
2019-05-25T18:06:27.798Z,7.00
2019-05-25T18:09:09.981Z,8.10
2019-05-25T18:11:59.734Z,7.20
2019-05-25T18:14:42.930Z,7.30
2019-05-25T18:20:37.851Z,8.00
2019-05-25T18:23:19.903Z,7.53
2019-05-25T18:26:09.654Z,7.63
2019-05-25T18:28:51.723Z,8.03
2019-05-25T18:31:41.507Z,8.37
2019-05-25T18:34:31.254Z,8.20
2019-05-25T18:37:20.991Z,8.80
2019-05-25T18:40:03.439Z,8.43
2019-05-25T18:42:53.330Z,8.97
2019-05-25T18:45:43.052Z,13.00
2019-05-25T18:48:25.634Z,10.80
2019-05-25T18:51:15.727Z,8.77
2019-05-25T18:54:05.740Z,9.73
2019-05-25T18:56:55.579Z,9.33
2019-05-25T18:59:45.436Z,9.53
2019-05-25T19:02:35.232Z,10.50
2019-05-25T19:05:25.103Z,10.67
2019-05-25T19:08:15.022Z,11.40
2019-05-25T19:11:04.841Z,10.37
2019-05-25T19:13:55.150Z,9.83
2019-05-25T19:16:44.998Z,10.37
2019-05-25T19:19:34.820Z,11.13
2019-05-25T19:22:24.587Z,10.20
2019-05-25T19:25:14.731Z,10.20
2019-05-25T19:30:48.151Z,10.67
2019-05-25T19:33:37.908Z,11.43
2019-05-25T19:36:20.544Z,11.50
2019-05-25T19:39:10.292Z,11.43
2019-05-25T19:41:52.885Z,10.70
2019-05-25T19:44:42.630Z,10.50
2019-05-25T19:47:25.300Z,12.03
2019-05-25T19:50:15.316Z,11.53
2019-05-25T19:52:58.909Z,12.07
2019-05-25T19:55:29.550Z,12.67
2019-05-25T19:58:19.251Z,12.23
2019-05-25T20:01:03.392Z,12.27
2019-05-25T20:03:57.197Z,15.83
2019-05-25T20:06:37.284Z,16.67
2019-05-25T20:09:27.144Z,16.23
2019-05-25T20:12:16.923Z,16.57
2019-05-25T20:18:03.792Z,15.63
2019-05-25T20:20:53.553Z,15.03
2019-05-25T20:26:39.033Z,12.97
2019-05-25T20:29:09.904Z,13.13
2019-05-25T20:31:40.541Z,13.60
2019-05-25T20:34:30.288Z,13.93
2019-05-25T20:37:14.649Z,13.80
2019-05-25T20:39:58.810Z,14.57
2019-05-25T20:54:42.864Z,15.90
2019-05-25T20:57:32.808Z,15.50
2019-05-25T21:00:24.272Z,15.93
2019-05-25T21:03:07.610Z,16.43
2019-05-25T21:05:57.417Z,17.00
2019-05-25T21:08:47.241Z,16.37
2019-05-25T21:11:37.447Z,17.43
2019-05-25T21:14:27.174Z,18.07
2019-05-25T21:17:16.978Z,17.27
2019-05-25T21:20:06.821Z,16.80
2019-05-25T21:23:09.361Z,19.33
2019-05-25T21:25:51.746Z,18.90
2019-05-25T21:28:41.473Z,18.07
2019-05-25T21:31:24.084Z,18.83
2019-05-25T21:34:14.293Z,19.27
2019-05-25T21:36:56.662Z,18.40
2019-05-25T21:39:46.353Z,19.60
2019-05-25T21:42:29.013Z,18.50
2019-05-25T21:45:18.859Z,17.23
2019-05-25T21:47:49.672Z,19.60
2019-05-25T21:50:58.510Z,17.80
2019-05-25T21:53:41.501Z,19.27
2019-05-25T21:56:31.205Z,20.23
2019-05-25T21:59:13.529Z,22.83
2019-05-25T22:02:03.303Z,21.70
2019-05-25T22:04:48.669Z,20.27
2019-05-25T22:10:39.485Z,21.13
2019-05-25T22:13:29.205Z,21.47
2019-05-25T22:16:11.814Z,21.93
2019-05-25T22:19:01.550Z,25.10
2019-05-25T22:21:46.045Z,24.50
2019-05-25T22:24:35.581Z,24.47
2019-05-25T22:27:18.361Z,23.10
2019-05-25T22:30:08.137Z,21.00
2019-05-25T22:32:50.128Z,20.13
2019-05-25T22:35:39.865Z,18.03
2019-05-25T22:41:13.815Z,18.47
2019-05-25T22:43:44.596Z,18.90
2019-05-25T22:46:34.299Z,18.80
2019-05-25T22:49:18.331Z,22.87
2019-05-25T22:52:02.210Z,18.87
2019-05-25T22:54:45.131Z,18.00
2019-05-25T22:57:34.874Z,18.37
2019-05-25T23:00:19.498Z,19.47
2019-05-25T23:03:03.811Z,17.50
2019-05-25T23:05:53.666Z,16.70
2019-05-25T23:08:43.570Z,16.13
2019-05-25T23:11:33.348Z,15.73
2019-05-25T23:14:23.170Z,15.60
2019-05-25T23:17:13.013Z,15.37
2019-05-25T23:20:02.816Z,15.83
2019-05-25T23:22:52.696Z,16.50
2019-05-25T23:28:46.173Z,16.33
2019-05-25T23:31:28.919Z,16.90
2019-05-25T23:34:18.654Z,17.57
2019-05-25T23:37:14.240Z,17.23
2019-05-25T23:39:52.151Z,17.80
2019-05-25T23:45:45.533Z,17.57
2019-05-25T23:48:28.024Z,16.97
2019-05-25T23:54:23.443Z,16.43
2019-05-25T23:57:06.289Z,16.07
2019-05-25T23:59:57.017Z,14.37
